createdAt,value
2019-02-07T00:01:08.709Z,27.87
2019-02-07T00:03:36.658Z,24.10
2019-02-07T00:06:04.987Z,26.20
2019-02-07T00:08:32.863Z,25.20
2019-02-07T00:11:00.996Z,24.10
2019-02-07T00:13:29.033Z,25.37
2019-02-07T00:15:57.005Z,24.70
2019-02-07T00:18:25.118Z,24.13
2019-02-07T00:20:53.118Z,21.50
2019-02-07T00:23:21.081Z,24.40
2019-02-07T00:25:49.287Z,28.17
2019-02-07T00:28:17.265Z,24.63
2019-02-07T00:30:45.137Z,25.30
2019-02-07T00:33:13.130Z,26.80
2019-02-07T00:35:41.086Z,21.50
2019-02-07T00:38:10.456Z,23.37
2019-02-07T00:40:38.428Z,26.90
2019-02-07T00:43:06.477Z,25.43
2019-02-07T00:45:34.539Z,25.77
2019-02-07T00:48:02.577Z,26.57
2019-02-07T00:50:31.184Z,28.07
2019-02-07T00:52:59.289Z,25.43
2019-02-07T00:55:27.156Z,26.60
2019-02-07T00:57:55.228Z,29.30
2019-02-07T01:00:23.591Z,29.20
2019-02-07T01:02:51.795Z,29.97
2019-02-07T01:05:19.890Z,29.13
2019-02-07T01:07:48.040Z,28.13
2019-02-07T01:10:18.466Z,27.40
2019-02-07T01:12:46.505Z,27.80
2019-02-07T01:15:14.649Z,25.83
2019-02-07T01:17:42.644Z,29.07
2019-02-07T01:20:11.364Z,25.57
2019-02-07T01:22:39.606Z,27.93
2019-02-07T01:25:08.681Z,24.47
2019-02-07T01:27:36.553Z,28.93
2019-02-07T01:30:05.768Z,22.43
2019-02-07T01:32:33.694Z,26.63
2019-02-07T01:35:01.587Z,25.00
2019-02-07T01:37:29.544Z,24.07
2019-02-07T01:39:57.517Z,24.27
2019-02-07T01:42:25.990Z,22.77
2019-02-07T01:44:53.978Z,20.50
2019-02-07T01:47:22.004Z,19.97
2019-02-07T01:49:49.872Z,20.07
2019-02-07T01:52:18.095Z,24.03
2019-02-07T01:54:45.975Z,21.73
2019-02-07T01:57:13.852Z,25.17
2019-02-07T01:59:42.363Z,23.90
2019-02-07T02:02:10.325Z,22.80
2019-02-07T02:04:38.177Z,23.63
2019-02-07T02:07:06.091Z,25.67
2019-02-07T02:09:34.021Z,24.47
2019-02-07T02:12:01.876Z,30.50
2019-02-07T02:14:29.769Z,27.77
2019-02-07T02:16:57.964Z,26.70
2019-02-07T02:19:25.832Z,26.43
2019-02-07T02:21:53.833Z,29.93
2019-02-07T02:24:21.813Z,26.10
2019-02-07T02:26:49.743Z,29.70
2019-02-07T02:29:17.702Z,25.83
2019-02-07T02:31:45.648Z,27.07
2019-02-07T02:34:13.734Z,27.93
2019-02-07T02:36:41.801Z,29.53
2019-02-07T02:39:09.795Z,32.40
2019-02-07T02:41:37.636Z,28.77
2019-02-07T02:44:05.506Z,29.80
2019-02-07T02:46:33.422Z,29.27
2019-02-07T02:49:01.387Z,31.20
2019-02-07T02:51:29.487Z,30.47
2019-02-07T02:53:59.314Z,33.63
2019-02-07T02:56:27.233Z,30.10
2019-02-07T02:58:55.227Z,33.87
2019-02-07T03:01:29.827Z,33.40
2019-02-07T03:04:15.372Z,34.40
2019-02-07T03:07:02.483Z,37.80
2019-02-07T03:09:48.367Z,36.90
2019-02-07T03:12:37.189Z,32.27
2019-02-07T03:15:23.127Z,37.33
2019-02-07T03:18:09.249Z,35.00
2019-02-07T03:21:02.076Z,36.73
2019-02-07T03:23:52.011Z,39.03
2019-02-07T03:26:37.822Z,40.33
2019-02-07T03:29:33.726Z,34.97
2019-02-07T03:32:23.770Z,33.00
2019-02-07T03:35:03.744Z,38.20
2019-02-07T03:38:05.886Z,33.67
2019-02-07T03:40:58.670Z,32.90
2019-02-07T03:43:44.447Z,39.20
2019-02-07T03:46:40.313Z,33.60
2019-02-07T03:49:25.854Z,33.00
2019-02-07T03:52:09.589Z,33.90
2019-02-07T03:55:02.615Z,30.67
2019-02-07T03:57:46.365Z,30.00
2019-02-07T04:00:35.396Z,31.13
2019-02-07T04:03:19.526Z,32.97
2019-02-07T04:06:05.566Z,33.57
2019-02-07T04:09:10.640Z,34.07
2019-02-07T04:11:56.738Z,38.20
2019-02-07T04:14:43.645Z,33.33
2019-02-07T04:17:28.826Z,32.30
2019-02-07T04:20:14.489Z,31.10
2019-02-07T04:23:01.531Z,29.70
2019-02-07T04:25:55.224Z,28.07
2019-02-07T04:28:36.067Z,33.17
2019-02-07T04:31:12.834Z,34.30
2019-02-07T04:33:58.426Z,33.27
2019-02-07T04:36:44.215Z,33.23
2019-02-07T04:39:29.987Z,36.20
2019-02-07T04:42:20.219Z,34.60
2019-02-07T04:45:25.667Z,35.97
2019-02-07T04:48:05.832Z,31.30
2019-02-07T04:50:55.787Z,36.07
2019-02-07T04:53:54.827Z,33.87
2019-02-07T04:56:57.221Z,40.93
2019-02-07T04:59:40.659Z,34.70
2019-02-07T05:02:26.396Z,34.57
2019-02-07T05:05:25.284Z,35.93
2019-02-07T05:08:10.783Z,37.43
2019-02-07T05:10:53.194Z,33.97
2019-02-07T05:13:45.924Z,36.83
2019-02-07T05:16:44.876Z,38.80
2019-02-07T05:19:19.046Z,32.90
2019-02-07T05:22:08.039Z,36.77
2019-02-07T05:24:45.247Z,32.57
2019-02-07T05:27:38.425Z,37.37
2019-02-07T05:30:29.469Z,38.10
2019-02-07T05:33:22.594Z,37.77
2019-02-07T05:36:01.247Z,35.83
2019-02-07T05:38:51.332Z,31.00
2019-02-07T05:41:41.962Z,33.20
2019-02-07T05:44:28.853Z,37.57
2019-02-07T05:47:10.078Z,35.13
2019-02-07T05:50:00.302Z,36.13
2019-02-07T05:52:57.071Z,32.77
2019-02-07T05:55:42.884Z,32.67
2019-02-07T05:58:39.093Z,38.33
2019-02-07T06:01:25.122Z,36.30
2019-02-07T06:04:11.918Z,32.20
2019-02-07T06:07:05.910Z,35.10
2019-02-07T06:09:59.210Z,37.90
2019-02-07T06:12:48.709Z,38.30
2019-02-07T06:15:35.612Z,31.53
2019-02-07T06:18:22.868Z,32.50
2019-02-07T06:21:12.817Z,30.90
2019-02-07T06:24:05.522Z,36.90
2019-02-07T06:26:56.621Z,33.33
2019-02-07T06:29:47.706Z,31.10
2019-02-07T06:32:24.392Z,33.10
2019-02-07T06:35:10.119Z,29.80
2019-02-07T06:37:56.216Z,29.83
2019-02-07T06:40:49.352Z,31.57
2019-02-07T06:43:24.276Z,32.27
2019-02-07T06:46:11.338Z,26.40
2019-02-07T06:48:51.327Z,30.13
2019-02-07T06:51:50.451Z,34.23
2019-02-07T06:54:43.444Z,25.80
2019-02-07T06:57:33.589Z,31.77
2019-02-07T07:00:20.654Z,33.40
2019-02-07T07:03:10.910Z,32.47
2019-02-07T07:05:48.637Z,29.30
2019-02-07T07:08:36.760Z,27.30
2019-02-07T07:11:29.785Z,29.70
2019-02-07T07:14:29.049Z,27.63
2019-02-07T07:17:25.415Z,32.00
2019-02-07T07:20:01.157Z,34.33
2019-02-07T07:22:57.466Z,32.67
2019-02-07T07:25:44.526Z,32.37
2019-02-07T07:28:31.860Z,34.00
2019-02-07T07:31:17.353Z,34.57
2019-02-07T07:34:10.808Z,31.37
2019-02-07T07:36:57.847Z,34.13
2019-02-07T07:39:36.754Z,39.23
2019-02-07T07:42:23.735Z,29.23
2019-02-07T07:45:16.936Z,31.17
2019-02-07T07:48:02.576Z,29.63
2019-02-07T07:50:49.484Z,27.77
2019-02-07T07:53:55.834Z,29.30
2019-02-07T07:56:48.669Z,31.03
2019-02-07T07:59:35.615Z,31.03
2019-02-07T08:02:21.652Z,28.97
2019-02-07T08:05:21.332Z,26.90
2019-02-07T08:08:07.039Z,30.83
2019-02-07T08:10:53.555Z,26.10
2019-02-07T08:13:41.278Z,26.77
2019-02-07T08:16:27.945Z,29.23
2019-02-07T08:19:13.838Z,29.93
2019-02-07T08:21:48.463Z,31.10
2019-02-07T08:24:34.345Z,31.43
2019-02-07T08:27:20.115Z,30.60
2019-02-07T08:30:09.937Z,36.13
2019-02-07T08:33:12.247Z,23.70
2019-02-07T08:35:59.561Z,31.63
2019-02-07T08:38:56.087Z,30.10
2019-02-07T08:41:46.592Z,25.07
2019-02-07T08:44:32.682Z,25.90
2019-02-07T08:47:25.970Z,30.80
2019-02-07T08:50:24.309Z,28.20
2019-02-07T08:53:18.335Z,29.77
2019-02-07T08:56:08.319Z,26.10
2019-02-07T08:59:07.965Z,28.67
2019-02-07T09:01:55.335Z,25.30
2019-02-07T09:04:48.896Z,26.47
2019-02-07T09:07:42.504Z,28.43
2019-02-07T09:10:23.213Z,26.23
2019-02-07T09:13:18.996Z,25.97
2019-02-07T09:15:55.767Z,23.57
2019-02-07T09:18:44.736Z,25.20
2019-02-07T09:21:35.086Z,27.83
2019-02-07T09:24:22.123Z,25.40
2019-02-07T09:26:55.325Z,23.30
2019-02-07T09:29:45.770Z,21.23
2019-02-07T09:32:38.609Z,23.50
2019-02-07T09:35:21.783Z,28.37
2019-02-07T09:38:07.370Z,24.60
2019-02-07T09:41:12.651Z,25.80
2019-02-07T09:44:02.891Z,28.23
2019-02-07T09:46:56.547Z,28.90
2019-02-07T09:49:43.511Z,25.90
2019-02-07T09:52:30.259Z,26.57
2019-02-07T09:55:16.326Z,24.73
2019-02-07T09:58:12.378Z,23.57
2019-02-07T10:00:58.638Z,23.27
2019-02-07T10:03:36.295Z,26.67
2019-02-07T10:06:47.464Z,26.10
2019-02-07T10:09:36.827Z,27.53
2019-02-07T10:12:33.444Z,23.07
2019-02-07T10:15:19.495Z,25.07
2019-02-07T10:18:06.994Z,24.77
2019-02-07T10:20:52.767Z,25.87
2019-02-07T10:23:48.727Z,23.00
2019-02-07T10:26:41.507Z,24.73
2019-02-07T10:29:28.457Z,20.83
2019-02-07T10:32:31.293Z,20.30
2019-02-07T10:35:22.875Z,21.40
2019-02-07T10:38:10.207Z,26.53
2019-02-07T10:41:06.639Z,21.03
2019-02-07T10:43:52.345Z,24.10
2019-02-07T10:46:51.275Z,26.83
2019-02-07T10:49:38.513Z,25.10
2019-02-07T10:52:27.856Z,23.00
2019-02-07T10:55:21.197Z,26.73
2019-02-07T10:58:10.938Z,28.00
2019-02-07T11:00:56.811Z,28.47
2019-02-07T11:03:59.395Z,24.00
2019-02-07T11:06:50.105Z,22.43
2019-02-07T11:09:37.079Z,25.67
2019-02-07T11:12:24.507Z,27.20
2019-02-07T11:15:20.655Z,25.20
2019-02-07T11:17:59.332Z,26.70
2019-02-07T11:20:45.362Z,24.13
2019-02-07T11:23:33.669Z,22.80
2019-02-07T11:26:19.184Z,25.00
2019-02-07T11:29:14.084Z,20.67
2019-02-07T11:31:55.909Z,21.87
2019-02-07T11:34:46.075Z,21.30
2019-02-07T11:37:34.716Z,21.00
2019-02-07T11:40:29.835Z,22.30
2019-02-07T11:43:28.991Z,24.40
2019-02-07T11:46:14.766Z,23.07
2019-02-07T11:49:06.595Z,23.63
2019-02-07T11:51:51.056Z,23.33
2019-02-07T11:54:29.463Z,21.93
2019-02-07T11:57:19.244Z,23.67
2019-02-07T12:00:06.817Z,23.30
2019-02-07T12:02:52.657Z,23.80
2019-02-07T12:05:39.099Z,25.03
2019-02-07T12:08:41.284Z,24.30
2019-02-07T12:11:36.827Z,21.70
2019-02-07T12:14:28.110Z,24.47
2019-02-07T12:17:18.917Z,24.20
2019-02-07T12:20:04.913Z,21.83
2019-02-07T12:22:55.533Z,21.23
2019-02-07T12:25:44.612Z,21.43
2019-02-07T12:28:37.439Z,23.70
2019-02-07T12:31:23.506Z,22.87
2019-02-07T12:34:10.619Z,26.60
2019-02-07T12:37:05.227Z,22.33
2019-02-07T12:39:51.293Z,21.90
2019-02-07T12:42:38.744Z,21.93
2019-02-07T12:45:35.492Z,21.10
2019-02-07T12:48:35.290Z,21.17
2019-02-07T12:51:28.256Z,21.73
2019-02-07T12:54:18.026Z,24.17
2019-02-07T12:57:04.048Z,23.07
2019-02-07T12:59:57.813Z,18.23
2019-02-07T13:02:56.760Z,22.67
2019-02-07T13:05:47.458Z,18.10
2019-02-07T13:08:34.519Z,22.07
2019-02-07T13:11:21.197Z,18.93
2019-02-07T13:14:20.555Z,17.10
2019-02-07T13:17:19.801Z,18.50
2019-02-07T13:20:01.686Z,22.80
2019-02-07T13:22:52.004Z,20.97
2019-02-07T13:25:38.202Z,20.63
2019-02-07T13:28:25.659Z,20.87
2019-02-07T13:31:25.633Z,22.90
2019-02-07T13:34:16.114Z,20.87
2019-02-07T13:37:18.306Z,18.93
2019-02-07T13:40:14.667Z,19.33
2019-02-07T13:43:01.564Z,28.53
2019-02-07T13:45:46.933Z,22.43
2019-02-07T13:48:46.402Z,22.80
2019-02-07T13:51:45.559Z,23.80
2019-02-07T13:54:30.874Z,20.50
2019-02-07T13:57:16.809Z,26.73
2019-02-07T14:00:19.265Z,20.83
2019-02-07T14:03:05.379Z,18.20
2019-02-07T14:05:55.483Z,16.47
2019-02-07T14:08:41.702Z,14.50
2019-02-07T14:11:34.788Z,16.50
2019-02-07T14:14:25.532Z,18.30
2019-02-07T14:17:05.452Z,16.50
2019-02-07T14:20:02.917Z,15.60
2019-02-07T14:22:40.236Z,16.23
2019-02-07T14:25:31.064Z,13.70
2019-02-07T14:28:27.326Z,15.80
2019-02-07T14:31:17.191Z,13.87
2019-02-07T14:33:57.894Z,15.17
2019-02-07T14:36:45.574Z,14.80
2019-02-07T14:39:31.179Z,17.00
2019-02-07T14:42:24.314Z,13.70
2019-02-07T14:45:04.463Z,13.40
2019-02-07T14:47:32.531Z,13.40
2019-02-07T14:50:01.654Z,12.07
2019-02-07T14:52:29.587Z,15.60
2019-02-07T14:54:57.680Z,21.77
2019-02-07T14:57:25.669Z,20.67
2019-02-07T14:59:53.637Z,12.70
2019-02-07T15:02:21.529Z,14.87
2019-02-07T15:04:49.502Z,15.10
2019-02-07T15:07:17.445Z,14.60
2019-02-07T15:09:45.381Z,14.50
2019-02-07T15:12:16.939Z,12.70
2019-02-07T15:14:44.853Z,12.43
2019-02-07T15:17:13.196Z,14.10
2019-02-07T15:19:41.111Z,16.87
2019-02-07T15:22:09.036Z,13.27
2019-02-07T15:24:37.296Z,12.13
2019-02-07T15:27:05.610Z,15.57
2019-02-07T15:29:33.704Z,12.90
2019-02-07T15:32:01.856Z,12.13
2019-02-07T15:34:30.100Z,15.93
2019-02-07T15:36:58.130Z,15.17
2019-02-07T15:39:28.764Z,14.07
2019-02-07T15:41:57.264Z,16.30
2019-02-07T15:44:25.504Z,13.67
2019-02-07T15:46:53.796Z,11.27
2019-02-07T15:49:21.933Z,12.60
2019-02-07T15:51:50.440Z,13.47
2019-02-07T15:54:18.602Z,14.00
2019-02-07T15:56:46.747Z,14.67
2019-02-07T15:59:31.746Z,14.37
2019-02-07T16:02:18.884Z,12.50
2019-02-07T16:04:47.525Z,12.10
2019-02-07T16:07:15.876Z,12.20
2019-02-07T16:09:44.145Z,16.27
2019-02-07T16:12:12.055Z,13.10
2019-02-07T16:14:41.298Z,12.40
2019-02-07T16:17:26.558Z,14.63
2019-02-07T16:19:54.711Z,14.60
2019-02-07T16:22:22.697Z,18.90
2019-02-07T16:24:50.632Z,15.20
2019-02-07T16:27:18.935Z,13.20
2019-02-07T16:29:47.013Z,14.50
2019-02-07T16:32:15.183Z,11.60
2019-02-07T16:34:43.485Z,13.40
2019-02-07T16:37:11.423Z,14.40
2019-02-07T16:39:39.753Z,14.10
2019-02-07T16:42:08.025Z,15.53
2019-02-07T16:44:36.760Z,12.53
2019-02-07T16:47:04.835Z,14.07
2019-02-07T16:49:32.899Z,15.53
2019-02-07T16:52:01.316Z,14.43
2019-02-07T16:54:29.326Z,15.13
2019-02-07T16:56:57.457Z,13.90
2019-02-07T16:59:25.788Z,14.57
2019-02-07T17:01:53.867Z,12.83
2019-02-07T17:04:22.972Z,13.10
2019-02-07T17:06:51.002Z,21.90
2019-02-07T17:09:25.157Z,15.30
2019-02-07T17:11:53.030Z,13.53
2019-02-07T17:14:21.106Z,17.47
2019-02-07T17:16:49.264Z,12.63
2019-02-07T17:19:17.315Z,13.27
2019-02-07T17:21:45.532Z,13.13
2019-02-07T17:24:13.615Z,10.07
2019-02-07T17:26:41.948Z,13.33
2019-02-07T17:29:12.316Z,12.47
2019-02-07T17:31:40.651Z,12.40
2019-02-07T17:34:10.274Z,17.97
2019-02-07T17:36:40.151Z,12.57
2019-02-07T17:41:49.340Z,12.50
2019-02-07T17:44:22.406Z,14.47
2019-02-07T17:46:50.115Z,13.30
2019-02-07T17:49:18.161Z,10.60
2019-02-07T17:51:46.345Z,12.23
2019-02-07T17:54:18.894Z,11.47
2019-02-07T17:56:44.733Z,13.40
2019-02-07T17:59:12.963Z,12.40
2019-02-07T18:01:41.174Z,12.00
2019-02-07T18:04:09.268Z,15.17
2019-02-07T18:06:37.291Z,12.17
2019-02-07T18:09:07.729Z,13.07
2019-02-07T18:11:38.878Z,15.10
2019-02-07T18:14:07.887Z,16.17
2019-02-07T18:16:36.134Z,12.97
2019-02-07T18:19:04.159Z,11.33
2019-02-07T18:21:34.256Z,16.30
2019-02-07T18:24:02.876Z,14.30
2019-02-07T18:26:31.047Z,12.93
2019-02-07T18:28:59.264Z,16.37
2019-02-07T18:31:27.708Z,12.83
2019-02-07T18:33:56.163Z,14.70
2019-02-07T18:36:24.398Z,13.50
2019-02-07T18:38:57.236Z,11.27
2019-02-07T18:41:25.649Z,11.63
2019-02-07T18:43:55.195Z,10.10
2019-02-07T18:46:23.318Z,12.50
2019-02-07T18:48:53.444Z,11.63
2019-02-07T18:51:21.461Z,11.83
2019-02-07T18:53:52.526Z,10.83
2019-02-07T18:56:20.699Z,11.60
2019-02-07T18:58:49.916Z,10.77
2019-02-07T19:01:17.785Z,10.17
2019-02-07T19:03:46.119Z,10.10
2019-02-07T19:06:14.017Z,10.10
2019-02-07T19:08:42.220Z,10.83
2019-02-07T19:11:14.161Z,9.87
2019-02-07T19:13:43.248Z,10.30
2019-02-07T19:16:15.469Z,12.13
2019-02-07T19:18:43.775Z,10.10
2019-02-07T19:21:14.619Z,8.50
2019-02-07T19:23:42.915Z,7.10
2019-02-07T19:26:13.341Z,12.03
2019-02-07T19:28:43.405Z,9.10
2019-02-07T19:31:11.985Z,6.20
2019-02-07T19:33:42.877Z,7.30
2019-02-07T19:36:34.468Z,9.27
2019-02-07T19:39:03.856Z,7.63
2019-02-07T19:41:33.253Z,6.33
2019-02-07T19:44:01.909Z,7.50
2019-02-07T19:46:30.093Z,5.77
2019-02-07T19:48:58.774Z,7.13
2019-02-07T19:51:27.178Z,8.37
2019-02-07T19:53:55.432Z,7.47
2019-02-07T19:56:27.312Z,7.87
2019-02-07T19:58:56.039Z,9.33
2019-02-07T20:01:24.025Z,6.83
2019-02-07T20:03:51.897Z,6.60
2019-02-07T20:06:20.312Z,6.27
2019-02-07T20:08:48.480Z,7.10
2019-02-07T20:11:16.696Z,7.70
2019-02-07T20:13:44.790Z,6.97
2019-02-07T20:16:12.983Z,7.60
2019-02-07T20:18:41.263Z,6.70
2019-02-07T20:21:09.824Z,8.63
2019-02-07T20:23:39.693Z,5.00
2019-02-07T20:26:07.843Z,9.70
2019-02-07T20:28:35.856Z,7.03
2019-02-07T20:31:04.108Z,5.80
2019-02-07T20:33:31.984Z,6.07
2019-02-07T20:36:07.588Z,6.23
2019-02-07T20:38:35.875Z,7.10
2019-02-07T20:41:03.950Z,6.03
2019-02-07T20:43:32.326Z,5.80
2019-02-07T20:46:03.156Z,5.83
2019-02-07T20:48:31.665Z,5.50
2019-02-07T20:50:59.791Z,5.60
2019-02-07T20:53:28.154Z,6.73
2019-02-07T20:55:56.327Z,8.37
2019-02-07T20:58:24.636Z,6.50
2019-02-07T21:00:53.265Z,5.57
2019-02-07T21:03:22.758Z,5.00
2019-02-07T21:05:54.249Z,6.00
2019-02-07T21:08:22.932Z,9.67
2019-02-07T21:10:51.285Z,6.13
2019-02-07T21:13:20.038Z,4.13
2019-02-07T21:15:48.356Z,8.40
2019-02-07T21:18:17.108Z,8.80
2019-02-07T21:20:45.901Z,5.10
2019-02-07T21:23:13.927Z,9.10
2019-02-07T21:25:46.070Z,6.40
2019-02-07T21:28:14.545Z,6.03
2019-02-07T21:30:42.615Z,6.00
2019-02-07T21:33:10.731Z,6.90
2019-02-07T21:35:38.760Z,6.60
2019-02-07T21:38:06.970Z,7.40
2019-02-07T21:40:35.347Z,11.70
2019-02-07T21:43:03.294Z,7.60
2019-02-07T21:45:31.652Z,6.03
2019-02-07T21:48:00.059Z,5.17
2019-02-07T21:50:28.646Z,10.60
2019-02-07T21:52:56.663Z,5.43
2019-02-07T21:55:25.632Z,5.33
2019-02-07T21:57:53.754Z,5.90
2019-02-07T22:00:41.057Z,6.13
2019-02-07T22:03:09.993Z,6.33
2019-02-07T22:05:38.337Z,6.10
2019-02-07T22:08:06.989Z,8.07
2019-02-07T22:10:35.068Z,5.40
2019-02-07T22:13:03.093Z,5.80
2019-02-07T22:15:31.893Z,8.03
2019-02-07T22:18:00.511Z,6.43
2019-02-07T22:20:28.563Z,7.70
2019-02-07T22:22:56.762Z,5.10
2019-02-07T22:25:25.082Z,5.13
2019-02-07T22:27:53.116Z,5.47
2019-02-07T22:30:31.346Z,4.40
2019-02-07T22:32:59.565Z,4.80
2019-02-07T22:35:27.439Z,7.07
2019-02-07T22:37:55.438Z,4.40
2019-02-07T22:40:32.478Z,6.67
2019-02-07T22:43:00.529Z,4.27
2019-02-07T22:45:28.599Z,3.67
2019-02-07T22:47:56.413Z,6.03
2019-02-07T22:50:25.900Z,4.77
2019-02-07T22:52:56.962Z,3.50
2019-02-07T22:55:23.686Z,7.30
2019-02-07T22:57:51.619Z,6.03
2019-02-07T23:00:41.462Z,4.13
2019-02-07T23:03:11.645Z,3.70
2019-02-07T23:05:39.697Z,3.40
2019-02-07T23:08:07.693Z,7.20
2019-02-07T23:10:35.555Z,3.63
2019-02-07T23:13:05.071Z,4.57
2019-02-07T23:15:33.014Z,5.73
2019-02-07T23:18:01.015Z,6.67
2019-02-07T23:20:28.937Z,3.17
2019-02-07T23:23:04.472Z,6.67
2019-02-07T23:25:26.483Z,5.20
2019-02-07T23:27:54.788Z,3.40
2019-02-07T23:30:22.779Z,7.30
2019-02-07T23:32:50.607Z,3.73
2019-02-07T23:35:21.526Z,5.37
2019-02-07T23:37:49.356Z,6.97
2019-02-07T23:40:17.362Z,4.30
2019-02-07T23:42:45.227Z,3.93
2019-02-07T23:45:15.530Z,6.43
2019-02-07T23:47:43.441Z,5.97
2019-02-07T23:50:11.694Z,7.93
2019-02-07T23:52:39.612Z,5.60
2019-02-07T23:55:07.764Z,4.70
2019-02-07T23:57:36.003Z,4.93
